Arklow Raider — EIXS — position and weather

sailwx.info

Track history (hours):
 
Tides and Currents Weather Stations Pressure Air Temp Water Temp Dewpoint Dewpoint Depression Visibility Wind Speed Wind Dir Waves Ship Positions

Arklow Raider

Last reported at 2015-Sep-04 13:33 UTC. Time now 2015-Sep-05 05:51 UTC.
Position N 57°09' W 002°04'.

Length 90 m; draft 3.8 m.

Type: Ship. MMSI: 250001268.

Date/timePositionNaut miles runAvg speedWind from/ knotsBaromVisibWave heightAir tempDewpointWater temp
2015-Sep-04 13:33N 57°09' W 002°04'1 0.6
2015-Sep-04 12:14N 57°09' W 002°05'0 0.0
2015-Sep-04 11:32N 57°09' W 002°05'0 0.0
2015-Sep-04 10:20N 57°09' W 002°05'0 0.0
2015-Sep-04 09:20N 57°09' W 002°05'0 0.0
2015-Sep-04 08:08N 57°09' W 002°05'0 0.0
2015-Sep-04 07:32N 57°09' W 002°05'0 0.0
2015-Sep-04 06:32N 57°09' W 002°05'0 0.0
2015-Sep-04 05:29N 57°09' W 002°05'0 0.0
2015-Sep-04 04:32N 57°09' W 002°05'0 0.0
2015-Sep-04 03:32N 57°09' W 002°05'0 0.0
2015-Sep-04 02:32N 57°09' W 002°05'0 0.0
2015-Sep-04 01:20N 57°09' W 002°05'0 0.0
2015-Sep-04 00:29N 57°09' W 002°05'0 0.0
2015-Sep-03 23:32N 57°09' W 002°05'0 0.0
2015-Sep-03 22:32N 57°09' W 002°05'0 0.0
2015-Sep-03 21:29N 57°09' W 002°05'0 0.0
2015-Sep-03 20:26N 57°09' W 002°05'0 0.0
2015-Sep-03 19:20N 57°09' W 002°05'0 0.0
2015-Sep-03 18:32N 57°09' W 002°05'0 0.0
2015-Sep-03 17:32N 57°09' W 002°05'0 0.0
2015-Sep-03 16:32N 57°09' W 002°05'0 0.0
2015-Sep-03 15:26N 57°09' W 002°05'0 0.0
2015-Sep-03 14:32N 57°09' W 002°05'0 0.0
2015-Sep-03 13:26N 57°09' W 002°05'0 0.0
2015-Sep-03 11:32N 57°09' W 002°05'0 0.0
2015-Sep-03 10:32N 57°09' W 002°05'0 0.0
2015-Sep-03 09:32N 57°09' W 002°05'0 0.0
2015-Sep-03 08:26N 57°09' W 002°05'0 0.0
2015-Sep-03 07:32N 57°09' W 002°05'0 0.0
2015-Sep-03 06:32N 57°09' W 002°05'0 0.0
2015-Sep-03 05:29N 57°09' W 002°05'0 0.0
2015-Sep-03 04:32N 57°09' W 002°05'0 0.0
2015-Sep-03 03:32N 57°09' W 002°05'0 0.0
2015-Sep-03 02:32N 57°09' W 002°05'0 0.0
2015-Sep-03 01:32N 57°09' W 002°05'0 0.0
2015-Sep-03 00:29N 57°09' W 002°05'0 0.0
2015-Sep-02 23:32N 57°09' W 002°05'0 0.0
2015-Sep-02 22:32N 57°09' W 002°05'0 0.0
2015-Sep-02 21:32N 57°09' W 002°05'0 0.0
2015-Sep-02 20:32N 57°09' W 002°05'0 0.0
2015-Sep-02 19:32N 57°09' W 002°05'0 0.0
2015-Sep-02 18:32N 57°09' W 002°05'0 0.0
2015-Sep-02 17:33N 57°09' W 002°05'4 3.6
2015-Sep-02 16:33N 57°10' W 001°59'9210.9
2015-Sep-02 08:06N 58°08' E 000°14'611.0
2015-Sep-02 07:33N 58°11' E 000°22'1110.8
2015-Sep-02 06:34N 58°18' E 000°38'1110.9
2015-Sep-02 05:33N 58°25' E 000°55'1111.0
2015-Sep-02 04:33N 58°32' E 001°11'1211.3
2015-Sep-02 03:31N 58°39' E 001°29'15310.7
2015-Sep-01 13:13N 59°60' E 005°43'  
2015-Aug-29 09:11N 59°60' E 005°52'274 9.9
2015-Aug-28 05:33N 58°44' W 002°45'1212.2
2015-Aug-28 04:33N 58°43' W 003°08'1211.4
2015-Aug-28 03:33N 58°42' W 003°30'10 9.8
2015-Aug-28 02:33N 58°41' W 003°49'1010.1
2015-Aug-28 01:33N 58°40' W 004°08'10 9.6
2015-Aug-28 00:33N 58°40' W 004°27'55 9.0
2015-Aug-27 18:26N 58°05' W 005°47'133 9.6
2015-Aug-27 04:31N 55°57' W 006°58'10 9.9
2015-Aug-27 03:33N 55°49' W 006°49'1010.4
2015-Aug-27 02:33N 55°40' W 006°40'1111.2
2015-Aug-27 01:33N 55°32' W 006°26'1111.4
2015-Aug-27 00:33N 55°26' W 006°09'1212.4
2015-Aug-26 23:33N 55°17' W 005°53'2612.5
2015-Aug-26 21:26N 54°53' W 005°35'1011.2
2015-Aug-26 20:33N 54°43' W 005°29'1010.5
2015-Aug-26 19:33N 54°33' W 005°23'10 9.6
2015-Aug-26 18:34N 54°24' W 005°19'1010.2
2015-Aug-26 17:33N 54°15' W 005°25'1110.7
2015-Aug-26 16:33N 54°05' W 005°32'1110.8
2015-Aug-26 15:32N 53°55' W 005°39'  
Track history (hours):
 
Tides and Currents Weather Stations Pressure Air Temp Water Temp Dewpoint Dewpoint Depression Visibility Wind Speed Wind Dir Waves Ship Positions

Arklow Raider

Last reported at 2015-Sep-04 13:33 UTC. Time now 2015-Sep-05 05:51 UTC.
Position N 57°09' W 002°04'.

Length 90 m; draft 3.8 m.

Type: Ship. MMSI: 250001268.

Date/timePositionNaut miles runAvg speedWind from/ knotsBaromVisibWave heightAir tempDewpointWater temp
2015-Sep-04 13:33N 57°09' W 002°04'1 0.6
2015-Sep-04 12:14N 57°09' W 002°05'0 0.0
2015-Sep-04 11:32N 57°09' W 002°05'0 0.0
2015-Sep-04 10:20N 57°09' W 002°05'0 0.0
2015-Sep-04 09:20N 57°09' W 002°05'0 0.0
2015-Sep-04 08:08N 57°09' W 002°05'0 0.0
2015-Sep-04 07:32N 57°09' W 002°05'0 0.0
2015-Sep-04 06:32N 57°09' W 002°05'0 0.0
2015-Sep-04 05:29N 57°09' W 002°05'0 0.0
2015-Sep-04 04:32N 57°09' W 002°05'0 0.0
2015-Sep-04 03:32N 57°09' W 002°05'0 0.0
2015-Sep-04 02:32N 57°09' W 002°05'0 0.0
2015-Sep-04 01:20N 57°09' W 002°05'0 0.0
2015-Sep-04 00:29N 57°09' W 002°05'0 0.0
2015-Sep-03 23:32N 57°09' W 002°05'0 0.0
2015-Sep-03 22:32N 57°09' W 002°05'0 0.0
2015-Sep-03 21:29N 57°09' W 002°05'0 0.0
2015-Sep-03 20:26N 57°09' W 002°05'0 0.0
2015-Sep-03 19:20N 57°09' W 002°05'0 0.0
2015-Sep-03 18:32N 57°09' W 002°05'0 0.0
2015-Sep-03 17:32N 57°09' W 002°05'0 0.0
2015-Sep-03 16:32N 57°09' W 002°05'0 0.0
2015-Sep-03 15:26N 57°09' W 002°05'0 0.0
2015-Sep-03 14:32N 57°09' W 002°05'0 0.0
2015-Sep-03 13:26N 57°09' W 002°05'0 0.0
2015-Sep-03 11:32N 57°09' W 002°05'0 0.0
2015-Sep-03 10:32N 57°09' W 002°05'0 0.0
2015-Sep-03 09:32N 57°09' W 002°05'0 0.0
2015-Sep-03 08:26N 57°09' W 002°05'0 0.0
2015-Sep-03 07:32N 57°09' W 002°05'0 0.0
2015-Sep-03 06:32N 57°09' W 002°05'0 0.0
2015-Sep-03 05:29N 57°09' W 002°05'0 0.0
2015-Sep-03 04:32N 57°09' W 002°05'0 0.0
2015-Sep-03 03:32N 57°09' W 002°05'0 0.0
2015-Sep-03 02:32N 57°09' W 002°05'0 0.0
2015-Sep-03 01:32N 57°09' W 002°05'0 0.0
2015-Sep-03 00:29N 57°09' W 002°05'0 0.0
2015-Sep-02 23:32N 57°09' W 002°05'0 0.0
2015-Sep-02 22:32N 57°09' W 002°05'0 0.0
2015-Sep-02 21:32N 57°09' W 002°05'0 0.0
2015-Sep-02 20:32N 57°09' W 002°05'0 0.0
2015-Sep-02 19:32N 57°09' W 002°05'0 0.0
2015-Sep-02 18:32N 57°09' W 002°05'0 0.0
2015-Sep-02 17:33N 57°09' W 002°05'4 3.6
2015-Sep-02 16:33N 57°10' W 001°59'9210.9
2015-Sep-02 08:06N 58°08' E 000°14'611.0
2015-Sep-02 07:33N 58°11' E 000°22'1110.8
2015-Sep-02 06:34N 58°18' E 000°38'1110.9
2015-Sep-02 05:33N 58°25' E 000°55'1111.0
2015-Sep-02 04:33N 58°32' E 001°11'1211.3
2015-Sep-02 03:31N 58°39' E 001°29'15310.7
2015-Sep-01 13:13N 59°60' E 005°43'  
2015-Aug-29 09:11N 59°60' E 005°52'274 9.9
2015-Aug-28 05:33N 58°44' W 002°45'1212.2
2015-Aug-28 04:33N 58°43' W 003°08'1211.4
2015-Aug-28 03:33N 58°42' W 003°30'10 9.8
2015-Aug-28 02:33N 58°41' W 003°49'1010.1
2015-Aug-28 01:33N 58°40' W 004°08'10 9.6
2015-Aug-28 00:33N 58°40' W 004°27'55 9.0
2015-Aug-27 18:26N 58°05' W 005°47'133 9.6
2015-Aug-27 04:31N 55°57' W 006°58'10 9.9
2015-Aug-27 03:33N 55°49' W 006°49'1010.4
2015-Aug-27 02:33N 55°40' W 006°40'1111.2
2015-Aug-27 01:33N 55°32' W 006°26'1111.4
2015-Aug-27 00:33N 55°26' W 006°09'1212.4
2015-Aug-26 23:33N 55°17' W 005°53'2612.5
2015-Aug-26 21:26N 54°53' W 005°35'1011.2
2015-Aug-26 20:33N 54°43' W 005°29'1010.5
2015-Aug-26 19:33N 54°33' W 005°23'10 9.6
2015-Aug-26 18:34N 54°24' W 005°19'1010.2
2015-Aug-26 17:33N 54°15' W 005°25'1110.7
2015-Aug-26 16:33N 54°05' W 005°32'1110.8
2015-Aug-26 15:32N 53°55' W 005°39'  

Dump ship's entire track history